createdAt,value
2018-08-04T00:02:21.482Z,10.45
2018-08-04T00:04:49.664Z,10.43
2018-08-04T00:07:17.966Z,15.23
2018-08-04T00:09:46.151Z,9.45
2018-08-04T00:12:14.372Z,9.30
2018-08-04T00:14:42.541Z,11.68
2018-08-04T00:17:10.541Z,8.67
2018-08-04T00:19:38.716Z,10.35
2018-08-04T00:22:06.774Z,9.25
2018-08-04T00:24:35.047Z,9.35
2018-08-04T00:27:03.478Z,11.30
2018-08-04T00:29:31.779Z,8.55
2018-08-04T00:32:00.004Z,10.35
2018-08-04T00:34:28.170Z,9.45
2018-08-04T00:36:56.512Z,13.95
2018-08-04T00:39:24.769Z,10.63
2018-08-04T00:41:52.814Z,11.48
2018-08-04T00:44:20.920Z,13.83
2018-08-04T00:46:49.088Z,11.95
2018-08-04T00:49:17.919Z,9.70
2018-08-04T00:51:46.148Z,10.43
2018-08-04T00:54:14.556Z,12.53
2018-08-04T00:56:42.753Z,13.30
2018-08-04T00:59:11.116Z,9.50
2018-08-04T01:01:39.648Z,10.03
2018-08-04T01:04:07.754Z,10.30
2018-08-04T01:06:36.399Z,11.50
2018-08-04T01:09:05.954Z,10.68
2018-08-04T01:11:34.451Z,11.33
2018-08-04T01:14:02.593Z,10.80
2018-08-04T01:16:30.914Z,11.50
2018-08-04T01:18:59.087Z,9.53
2018-08-04T01:21:27.323Z,10.65
2018-08-04T01:23:55.528Z,10.18
2018-08-04T01:26:23.804Z,9.43
2018-08-04T01:28:51.830Z,9.60
2018-08-04T01:31:19.974Z,11.85
2018-08-04T01:33:48.426Z,11.05
2018-08-04T01:36:16.627Z,9.00
2018-08-04T01:38:44.813Z,10.75
2018-08-04T01:41:12.898Z,9.38
2018-08-04T01:43:41.043Z,9.83
2018-08-04T01:46:09.294Z,9.70
2018-08-04T01:48:37.493Z,11.53
2018-08-04T01:51:05.855Z,10.67
2018-08-04T01:53:34.220Z,12.37
2018-08-04T01:56:02.686Z,10.60
2018-08-04T01:58:30.986Z,10.55
2018-08-04T02:00:59.557Z,10.30
2018-08-04T02:03:28.059Z,9.10
2018-08-04T02:05:56.279Z,9.70
2018-08-04T02:08:24.631Z,11.57
2018-08-04T02:10:52.649Z,11.43
2018-08-04T02:13:21.384Z,10.50
2018-08-04T02:15:49.426Z,11.50
2018-08-04T02:18:17.477Z,11.20
2018-08-04T02:20:45.766Z,15.63
2018-08-04T02:23:14.022Z,11.25
2018-08-04T02:25:42.113Z,12.20
2018-08-04T02:28:10.502Z,14.90
2018-08-04T02:30:38.821Z,12.20
2018-08-04T02:33:07.115Z,10.25
2018-08-04T02:35:35.425Z,10.32
2018-08-04T02:38:03.905Z,12.55
2018-08-04T02:40:32.431Z,9.13
2018-08-04T02:43:01.016Z,9.43
2018-08-04T02:45:29.356Z,11.10
2018-08-04T02:47:57.845Z,10.18
2018-08-04T02:50:26.013Z,10.70
2018-08-04T02:52:54.965Z,11.00
2018-08-04T02:55:23.130Z,12.53
2018-08-04T02:57:52.450Z,10.93
2018-08-04T03:00:20.961Z,12.73
2018-08-04T03:02:49.565Z,12.13
2018-08-04T03:05:18.134Z,12.13
2018-08-04T03:07:46.190Z,9.10
2018-08-04T03:10:14.934Z,12.80
2018-08-04T03:12:44.010Z,15.25
2018-08-04T03:15:12.612Z,12.10
2018-08-04T03:17:40.619Z,11.20
2018-08-04T03:20:09.577Z,11.35
2018-08-04T03:22:38.494Z,11.18
2018-08-04T03:25:06.794Z,14.73
2018-08-04T03:27:35.078Z,13.03
2018-08-04T03:30:03.683Z,13.67
2018-08-04T03:32:31.726Z,11.45
2018-08-04T03:35:01.265Z,11.40
2018-08-04T03:37:29.868Z,12.40
2018-08-04T03:39:57.993Z,10.15
2018-08-04T03:42:26.280Z,13.72
2018-08-04T03:44:54.479Z,11.57
2018-08-04T03:47:23.311Z,11.53
2018-08-04T03:49:51.479Z,13.20
2018-08-04T03:52:20.537Z,10.53
2018-08-04T03:54:48.843Z,11.23
2018-08-04T03:57:17.701Z,12.20
2018-08-04T03:59:46.104Z,12.20
2018-08-04T04:02:14.999Z,17.95
2018-08-04T04:04:43.133Z,9.05
2018-08-04T04:07:11.242Z,12.03
2018-08-04T04:09:39.698Z,10.80
2018-08-04T04:12:08.901Z,9.75
2018-08-04T04:14:37.581Z,11.60
2018-08-04T04:18:02.186Z,9.77
2018-08-04T04:20:30.537Z,10.50
2018-08-04T04:22:58.837Z,10.40
2018-08-04T04:25:26.905Z,12.20
2018-08-04T04:27:55.290Z,9.70
2018-08-04T04:30:23.641Z,10.70
2018-08-04T04:32:51.972Z,8.20
2018-08-04T04:35:20.005Z,8.70
2018-08-04T04:37:48.078Z,8.13
2018-08-04T04:40:16.109Z,9.07
2018-08-04T04:42:44.778Z,7.35
2018-08-04T04:45:13.130Z,9.17
2018-08-04T04:47:41.507Z,7.80
2018-08-04T04:50:10.195Z,9.50
2018-08-04T04:52:39.197Z,10.85
2018-08-04T04:55:07.974Z,7.70
2018-08-04T04:57:36.317Z,9.77
2018-08-04T05:00:04.941Z,9.80
2018-08-04T05:02:33.228Z,9.00
2018-08-04T05:05:01.490Z,7.42
2018-08-04T05:07:29.833Z,10.18
2018-08-04T05:09:58.760Z,7.53
2018-08-04T05:12:27.792Z,9.90
2018-08-04T05:14:56.642Z,9.77
2018-08-04T05:17:25.516Z,10.60
2018-08-04T05:19:53.526Z,9.08
2018-08-04T05:22:21.990Z,7.17
2018-08-04T05:24:50.368Z,7.08
2018-08-04T05:27:18.846Z,6.45
2018-08-04T05:29:47.186Z,7.20
2018-08-04T05:32:15.289Z,6.67
2018-08-04T05:34:43.360Z,6.55
2018-08-04T05:37:11.654Z,6.43
2018-08-04T05:39:39.701Z,9.00
2018-08-04T05:42:07.860Z,7.33
2018-08-04T05:44:36.282Z,5.20
2018-08-04T05:47:04.958Z,9.80
2018-08-04T05:49:33.337Z,5.70
2018-08-04T05:52:01.402Z,6.45
2018-08-04T05:54:29.457Z,6.17
2018-08-04T05:56:57.594Z,8.60
2018-08-04T05:59:25.829Z,7.00
2018-08-04T06:01:53.950Z,5.75
2018-08-04T06:04:22.289Z,5.72
2018-08-04T06:06:50.358Z,8.08
2018-08-04T06:09:19.069Z,10.32
2018-08-04T06:11:47.732Z,9.90
2018-08-04T06:14:16.002Z,7.60
2018-08-04T06:16:44.099Z,8.00
2018-08-04T06:19:12.353Z,7.97
2018-08-04T06:21:40.467Z,7.10
2018-08-04T06:24:08.881Z,6.67
2018-08-04T06:26:37.612Z,5.10
2018-08-04T06:29:06.281Z,4.83
2018-08-04T06:31:34.625Z,6.22
2018-08-04T06:34:03.047Z,5.40
2018-08-04T06:36:31.107Z,5.78
2018-08-04T06:38:59.453Z,7.20
2018-08-04T06:41:27.513Z,5.42
2018-08-04T06:43:55.948Z,5.00
2018-08-04T06:46:24.550Z,6.60
2018-08-04T06:48:52.505Z,5.30
2018-08-04T06:51:20.580Z,5.22
2018-08-04T06:53:48.808Z,6.00
2018-08-04T06:56:16.870Z,4.70
2018-08-04T06:58:44.859Z,6.12
2018-08-04T07:01:12.854Z,4.85
2018-08-04T07:03:41.534Z,4.57
2018-08-04T07:06:09.550Z,6.05
2018-08-04T07:08:37.586Z,5.87
2018-08-04T07:11:05.648Z,5.95
2018-08-04T07:13:34.137Z,4.75
2018-08-04T07:16:02.139Z,4.20
2018-08-04T07:18:30.173Z,8.08
2018-08-04T07:20:58.121Z,4.62
2018-08-04T07:23:26.193Z,7.22
2018-08-04T07:25:54.224Z,5.60
2018-08-04T07:28:22.268Z,5.22
2018-08-04T07:30:50.259Z,6.13
2018-08-04T07:33:18.273Z,7.90
2018-08-04T07:35:46.248Z,6.65
2018-08-04T07:38:14.306Z,7.80
2018-08-04T07:40:42.348Z,4.80
2018-08-04T07:43:10.287Z,6.37
2018-08-04T07:45:38.288Z,5.42
2018-08-04T07:48:07.072Z,4.60
2018-08-04T07:50:35.060Z,8.03
2018-08-04T07:53:03.054Z,6.70
2018-08-04T07:55:33.704Z,6.03
2018-08-04T07:58:01.704Z,4.50
2018-08-04T08:00:29.729Z,6.20
2018-08-04T08:02:57.849Z,3.75
2018-08-04T08:05:25.779Z,6.00
2018-08-04T08:07:53.859Z,4.50
2018-08-04T08:10:22.012Z,4.97
2018-08-04T08:12:49.951Z,5.28
2018-08-04T08:15:18.068Z,4.40
2018-08-04T08:17:46.119Z,4.17
2018-08-04T08:20:14.715Z,4.33
2018-08-04T08:22:43.721Z,5.28
2018-08-04T08:25:12.042Z,4.78
2018-08-04T08:27:40.488Z,6.67
2018-08-04T08:30:09.577Z,3.90
2018-08-04T08:32:37.621Z,4.70
2018-08-04T08:35:05.788Z,5.60
2018-08-04T08:37:41.197Z,5.30
2018-08-04T08:40:10.419Z,5.30
2018-08-04T08:42:38.388Z,6.50
2018-08-04T08:45:07.340Z,5.80
2018-08-04T08:47:35.593Z,5.78
2018-08-04T08:50:04.590Z,6.70
2018-08-04T08:52:32.886Z,6.45
2018-08-04T08:55:00.903Z,7.30
2018-08-04T08:57:28.879Z,6.20
2018-08-04T08:59:57.772Z,7.05
2018-08-04T09:02:26.338Z,5.72
2018-08-04T09:04:54.573Z,5.90
2018-08-04T09:07:22.811Z,6.70
2018-08-04T09:09:50.768Z,10.00
2018-08-04T09:12:18.706Z,7.10
2018-08-04T09:14:46.602Z,6.33
2018-08-04T09:17:14.827Z,8.15
2018-08-04T09:19:43.109Z,7.20
2018-08-04T09:22:11.156Z,7.00
2018-08-04T09:24:39.212Z,9.23
2018-08-04T09:27:07.110Z,8.98
2018-08-04T09:29:35.906Z,7.75
2018-08-04T09:32:04.156Z,7.92
2018-08-04T09:34:32.324Z,8.60
2018-08-04T09:37:00.485Z,7.83
2018-08-04T09:39:28.614Z,7.30
2018-08-04T09:41:56.881Z,7.25
2018-08-04T09:44:24.804Z,6.80
2018-08-04T09:46:53.136Z,7.92
2018-08-04T09:49:21.109Z,8.50
2018-08-04T09:51:49.068Z,11.97
2018-08-04T09:54:17.040Z,9.80
2018-08-04T09:56:45.013Z,8.30
2018-08-04T09:59:13.171Z,9.23
2018-08-04T10:01:41.705Z,11.40
2018-08-04T10:04:10.253Z,9.50
2018-08-04T10:06:38.188Z,11.50
2018-08-04T10:09:07.414Z,8.20
2018-08-04T10:11:35.738Z,8.90
2018-08-04T10:14:04.227Z,10.00
2018-08-04T10:16:32.489Z,8.90
2018-08-04T10:19:00.643Z,8.20
2018-08-04T10:21:29.226Z,11.28
2018-08-04T10:23:57.694Z,7.92
2018-08-04T10:26:25.788Z,8.20
2018-08-04T10:28:54.070Z,10.70
2018-08-04T10:31:22.950Z,12.10
2018-08-04T10:33:51.257Z,9.08
2018-08-04T10:36:19.523Z,7.85
2018-08-04T10:38:47.595Z,8.35
2018-08-04T10:41:16.179Z,8.20
2018-08-04T10:43:44.331Z,11.60
2018-08-04T10:46:12.564Z,7.83
2018-08-04T10:48:40.734Z,9.40
2018-08-04T10:51:08.857Z,10.00
2018-08-04T10:53:37.075Z,8.80
2018-08-04T10:56:05.201Z,10.70
2018-08-04T10:58:33.543Z,10.32
2018-08-04T11:01:01.665Z,11.78
2018-08-04T11:03:29.791Z,10.73
2018-08-04T11:05:57.937Z,10.35
2018-08-04T11:08:26.016Z,8.98
2018-08-04T11:10:54.178Z,9.60
2018-08-04T11:13:22.434Z,9.20
2018-08-04T11:15:50.583Z,10.45
2018-08-04T11:18:18.739Z,8.50
2018-08-04T11:20:46.851Z,9.30
2018-08-04T11:23:15.014Z,10.30
2018-08-04T11:25:43.065Z,9.80
2018-08-04T11:28:11.384Z,9.93
2018-08-04T11:30:39.494Z,8.98
2018-08-04T11:33:07.628Z,8.30
2018-08-04T11:35:35.701Z,9.50
2018-08-04T11:38:04.092Z,8.50
2018-08-04T11:40:32.183Z,8.10
2018-08-04T11:43:01.061Z,9.20
2018-08-04T11:45:29.374Z,8.40
2018-08-04T11:47:57.990Z,11.35
2018-08-04T11:50:26.212Z,10.80
2018-08-04T11:52:54.410Z,11.95
2018-08-04T11:55:23.001Z,8.90
2018-08-04T11:57:51.005Z,11.15
2018-08-04T12:00:19.565Z,8.33
2018-08-04T12:02:47.577Z,11.20
2018-08-04T12:05:15.630Z,8.30
2018-08-04T12:07:43.878Z,9.30
2018-08-04T12:10:12.187Z,8.78
2018-08-04T12:12:40.198Z,7.70
2018-08-04T12:15:08.270Z,10.38
2018-08-04T12:17:36.568Z,9.28
2018-08-04T12:20:04.908Z,7.87
2018-08-04T12:22:32.969Z,9.30
2018-08-04T12:25:00.995Z,8.38
2018-08-04T12:27:29.061Z,8.88
2018-08-04T12:29:57.384Z,8.00
2018-08-04T12:32:25.385Z,7.87
2018-08-04T12:34:53.690Z,8.28
2018-08-04T12:37:21.818Z,12.93
2018-08-04T12:39:49.881Z,8.30
2018-08-04T12:42:18.126Z,9.30
2018-08-04T12:44:46.204Z,8.23
2018-08-04T12:47:14.213Z,8.80
2018-08-04T12:49:42.466Z,9.50
2018-08-04T12:52:10.724Z,13.30
2018-08-04T12:54:38.785Z,8.00
2018-08-04T12:57:07.623Z,8.83
2018-08-04T12:59:37.850Z,8.83
2018-08-04T13:02:06.173Z,9.13
2018-08-04T13:04:34.906Z,13.05
2018-08-04T13:07:03.134Z,9.00
2018-08-04T13:09:31.546Z,8.90
2018-08-04T13:12:00.002Z,7.08
2018-08-04T13:14:29.057Z,7.90
2018-08-04T13:16:57.176Z,7.92
2018-08-04T13:19:25.350Z,7.62
2018-08-04T13:21:53.686Z,7.62
2018-08-04T13:24:21.916Z,13.18
2018-08-04T13:26:50.480Z,10.05
2018-08-04T13:29:19.504Z,7.03
2018-08-04T13:31:47.525Z,11.18
2018-08-04T13:34:15.957Z,14.75
2018-08-04T13:36:44.415Z,9.90
2018-08-04T13:39:12.699Z,8.23
2018-08-04T13:41:41.871Z,7.37
2018-08-04T13:44:10.347Z,7.53
2018-08-04T13:46:38.980Z,7.70
2018-08-04T13:49:07.145Z,7.28
2018-08-04T13:51:35.767Z,7.50
2018-08-04T13:54:04.123Z,8.00
2018-08-04T13:56:32.322Z,6.85
2018-08-04T13:59:00.829Z,9.45
2018-08-04T14:01:29.037Z,7.20
2018-08-04T14:03:57.271Z,7.80
2018-08-04T14:06:25.493Z,7.30
2018-08-04T14:08:53.793Z,8.03
2018-08-04T14:11:21.998Z,8.50
2018-08-04T14:13:50.600Z,9.00
2018-08-04T14:16:18.603Z,7.75
2018-08-04T14:18:46.966Z,6.93
2018-08-04T14:21:15.347Z,7.60
2018-08-04T14:23:43.430Z,8.20
2018-08-04T14:26:11.704Z,7.78
2018-08-04T14:28:40.218Z,10.90
2018-08-04T14:31:08.670Z,7.20
2018-08-04T14:33:36.925Z,9.80
2018-08-04T14:36:05.257Z,8.03
2018-08-04T14:38:33.301Z,10.30
2018-08-04T14:41:01.549Z,8.55
2018-08-04T14:43:30.080Z,9.25
2018-08-04T14:45:58.106Z,10.50
2018-08-04T14:48:26.606Z,9.20
2018-08-04T14:50:54.879Z,9.35
2018-08-04T14:53:22.983Z,11.15
2018-08-04T14:55:51.165Z,7.90
2018-08-04T14:58:19.221Z,9.13
2018-08-04T15:00:47.453Z,8.73
2018-08-04T15:03:15.745Z,9.28
2018-08-04T15:05:43.791Z,7.83
2018-08-04T15:08:11.826Z,7.50
2018-08-04T15:10:39.858Z,9.10
2018-08-04T15:13:08.456Z,7.80
2018-08-04T15:15:36.495Z,7.80
2018-08-04T15:18:04.866Z,9.53
2018-08-04T15:20:32.954Z,7.90
2018-08-04T15:23:01.173Z,8.10
2018-08-04T15:25:29.285Z,8.10
2018-08-04T15:27:57.369Z,7.95
2018-08-04T15:30:25.474Z,11.03
2018-08-04T15:32:53.504Z,7.60
2018-08-04T15:35:21.807Z,14.50
2018-08-04T15:37:50.363Z,7.50
2018-08-04T15:40:18.865Z,8.10
2018-08-04T15:42:46.952Z,13.20
2018-08-04T15:45:15.058Z,7.35
2018-08-04T15:47:43.819Z,7.42
2018-08-04T15:50:12.000Z,9.18
2018-08-04T15:52:40.137Z,7.97
2018-08-04T15:55:08.182Z,9.60
2018-08-04T15:57:36.510Z,9.25
2018-08-04T16:00:05.439Z,7.60
2018-08-04T16:02:33.479Z,7.50
2018-08-04T16:05:01.533Z,8.20
2018-08-04T16:07:29.650Z,9.00
2018-08-04T16:09:58.326Z,7.50
2018-08-04T16:12:26.428Z,12.65
2018-08-04T16:14:54.504Z,10.25
2018-08-04T16:17:22.710Z,9.30
2018-08-04T16:19:50.979Z,8.98
2018-08-04T16:22:19.234Z,8.75
2018-08-04T16:24:47.389Z,9.08
2018-08-04T16:27:15.546Z,8.40
2018-08-04T16:29:43.770Z,9.05
2018-08-04T16:32:11.777Z,8.20
2018-08-04T16:34:39.948Z,11.90
2018-08-04T16:37:08.037Z,7.85
2018-08-04T16:39:36.110Z,8.20
2018-08-04T16:42:04.220Z,7.17
2018-08-04T16:44:32.270Z,7.77
2018-08-04T16:47:00.395Z,8.00
2018-08-04T16:49:28.546Z,7.70
2018-08-04T16:51:56.738Z,7.60
2018-08-04T16:54:25.060Z,7.60
2018-08-04T16:56:53.208Z,9.00
2018-08-04T16:59:21.358Z,10.23
2018-08-04T17:01:49.411Z,10.35
2018-08-04T17:04:17.595Z,9.10
2018-08-04T17:06:46.081Z,9.73
2018-08-04T17:09:14.118Z,11.20
2018-08-04T17:11:42.497Z,11.97
2018-08-04T17:14:10.576Z,9.45
2018-08-04T17:16:38.738Z,8.08
2018-08-04T17:19:07.186Z,8.50
2018-08-04T17:21:35.285Z,7.83
2018-08-04T17:24:03.353Z,8.17
2018-08-04T17:26:31.447Z,8.45
2018-08-04T17:28:59.474Z,8.65
2018-08-04T17:31:27.567Z,8.15
2018-08-04T17:33:56.090Z,10.90
2018-08-04T17:36:24.254Z,8.25
2018-08-04T17:38:52.305Z,9.90
2018-08-04T17:41:20.462Z,9.68
2018-08-04T17:43:48.914Z,9.20
2018-08-04T17:46:16.982Z,11.20
2018-08-04T17:48:45.063Z,9.08
2018-08-04T17:51:13.228Z,9.80
2018-08-04T17:53:41.357Z,12.60
2018-08-04T17:56:09.385Z,10.68
2018-08-04T17:58:37.622Z,12.13
2018-08-04T18:01:05.745Z,10.82
2018-08-04T18:03:33.801Z,10.70
2018-08-04T18:06:02.066Z,9.30
2018-08-04T18:08:30.465Z,10.30
2018-08-04T18:10:58.644Z,12.28
2018-08-04T18:13:26.959Z,9.23
2018-08-04T18:15:55.005Z,11.30
2018-08-04T18:18:23.063Z,9.13
2018-08-04T18:20:51.056Z,10.10
2018-08-04T18:23:19.305Z,9.40
2018-08-04T18:25:47.558Z,8.53
2018-08-04T18:28:15.775Z,12.60
2018-08-04T18:30:43.825Z,9.58
2018-08-04T18:33:11.977Z,11.03
2018-08-04T18:35:40.027Z,10.90
2018-08-04T18:38:08.127Z,10.17
2018-08-04T18:40:36.250Z,10.13
2018-08-04T18:43:04.272Z,9.53
2018-08-04T18:45:32.444Z,11.15
2018-08-04T18:48:00.542Z,11.30
2018-08-04T18:50:28.586Z,9.78
2018-08-04T18:52:56.629Z,10.63
2018-08-04T18:55:24.967Z,14.13
2018-08-04T18:57:53.190Z,13.22
2018-08-04T19:00:21.238Z,7.95
2018-08-04T19:02:49.485Z,7.63
2018-08-04T19:05:17.680Z,7.33
2018-08-04T19:07:45.745Z,10.05
2018-08-04T19:10:13.900Z,7.65
2018-08-04T19:12:41.962Z,11.20
2018-08-04T19:15:10.025Z,8.60
2018-08-04T19:17:38.101Z,7.62
2018-08-04T19:20:06.165Z,8.40
2018-08-04T19:22:34.477Z,8.00
2018-08-04T19:25:02.706Z,7.10
2018-08-04T19:27:30.950Z,5.37
2018-08-04T19:29:59.008Z,5.00
2018-08-04T19:32:27.122Z,4.90
2018-08-04T19:34:55.276Z,5.87
2018-08-04T19:37:23.743Z,6.97
2018-08-04T19:39:51.823Z,5.10
2018-08-04T19:42:20.235Z,4.42
2018-08-04T19:44:48.434Z,6.53
2018-08-04T19:47:16.499Z,6.45
2018-08-04T19:49:44.602Z,4.92
2018-08-04T19:52:12.699Z,5.55
2018-08-04T19:54:40.857Z,5.97
2018-08-04T19:57:09.232Z,5.27
2018-08-04T19:59:37.534Z,4.40
2018-08-04T20:02:05.827Z,4.70
2018-08-04T20:04:33.908Z,6.60
2018-08-04T20:07:02.131Z,4.90
2018-08-04T20:09:30.271Z,4.80
2018-08-04T20:11:58.404Z,4.75
2018-08-04T20:14:26.491Z,4.97
2018-08-04T20:16:54.631Z,4.10
2018-08-04T20:19:22.704Z,6.63
2018-08-04T20:21:50.794Z,4.70
2018-08-04T20:24:19.071Z,4.58
2018-08-04T20:26:47.182Z,4.30
2018-08-04T20:29:15.406Z,4.30
2018-08-04T20:31:43.441Z,5.60
2018-08-04T20:34:11.575Z,4.37
2018-08-04T20:36:39.706Z,4.60
2018-08-04T20:39:08.352Z,4.13
2018-08-04T20:41:36.530Z,4.60
2018-08-04T20:44:04.676Z,8.30
2018-08-04T20:46:32.697Z,4.60
2018-08-04T20:49:00.762Z,6.30
2018-08-04T20:51:28.836Z,5.40
2018-08-04T20:53:56.942Z,4.80
2018-08-04T20:56:25.286Z,6.17
2018-08-04T20:58:53.789Z,4.42
2018-08-04T21:01:27.458Z,6.40
2018-08-04T21:03:55.713Z,6.22
2018-08-04T21:06:23.802Z,5.90
2018-08-04T21:08:52.236Z,6.33
2018-08-04T21:11:20.685Z,4.37
2018-08-04T21:13:48.827Z,5.50
2018-08-04T21:16:17.158Z,5.35
2018-08-04T21:18:45.203Z,4.70
2018-08-04T21:21:13.255Z,5.90
2018-08-04T21:23:41.362Z,4.05
2018-08-04T21:26:09.498Z,8.45
2018-08-04T21:28:37.549Z,6.37
2018-08-04T21:31:05.908Z,6.23
2018-08-04T21:33:34.203Z,5.77
2018-08-04T21:36:02.571Z,5.63
2018-08-04T21:38:31.252Z,5.28
2018-08-04T21:40:59.323Z,5.45
2018-08-04T21:43:27.897Z,9.10
2018-08-04T21:45:56.274Z,3.80
2018-08-04T21:48:24.330Z,5.08
2018-08-04T21:50:52.451Z,4.10
2018-08-04T21:53:20.567Z,4.78
2018-08-04T21:55:48.962Z,4.90
2018-08-04T21:58:17.364Z,5.90
2018-08-04T22:00:50.747Z,3.90
2018-08-04T22:03:18.941Z,4.60
2018-08-04T22:05:47.052Z,5.45
2018-08-04T22:08:20.921Z,5.03
2018-08-04T22:10:48.999Z,4.00
2018-08-04T22:13:17.149Z,4.80
2018-08-04T22:15:45.776Z,4.30
2018-08-04T22:18:13.823Z,4.40
2018-08-04T22:20:42.011Z,5.65
2018-08-04T22:23:10.122Z,6.80
2018-08-04T22:25:38.266Z,4.85
2018-08-04T22:28:06.318Z,4.28
2018-08-04T22:30:34.478Z,4.72
2018-08-04T22:33:02.612Z,4.15
2018-08-04T22:35:30.722Z,4.10
2018-08-04T22:37:58.823Z,5.30
2018-08-04T22:41:58.365Z,5.40
2018-08-04T22:44:27.133Z,4.80
2018-08-04T22:46:55.290Z,5.30
2018-08-04T22:49:23.454Z,5.40
2018-08-04T22:51:51.624Z,5.30
2018-08-04T22:57:00.797Z,7.92
2018-08-04T22:59:29.135Z,6.85
2018-08-04T23:01:57.310Z,4.05
2018-08-04T23:04:25.347Z,5.85
2018-08-04T23:06:53.721Z,5.72
2018-08-04T23:09:22.153Z,5.10
2018-08-04T23:11:50.305Z,4.00
2018-08-04T23:14:18.408Z,6.77
2018-08-04T23:16:46.475Z,6.47
2018-08-04T23:19:14.885Z,3.55
2018-08-04T23:21:43.195Z,4.25
2018-08-04T23:24:11.288Z,4.60
2018-08-04T23:26:39.402Z,4.72
2018-08-04T23:29:07.526Z,8.43
2018-08-04T23:31:35.794Z,4.62
2018-08-04T23:34:03.867Z,3.52
2018-08-04T23:36:31.974Z,3.42
2018-08-04T23:39:00.237Z,3.87
2018-08-04T23:41:28.326Z,4.37
2018-08-04T23:43:56.419Z,3.50
2018-08-04T23:46:24.441Z,3.70
2018-08-04T23:48:52.674Z,3.90
2018-08-04T23:51:20.710Z,6.30
2018-08-04T23:53:48.813Z,4.03
2018-08-04T23:56:16.914Z,4.85
2018-08-04T23:58:45.245Z,3.60
